Date,TemperatureHighF,TemperatureAvgF,TemperatureLowF,DewpointHighF,DewpointAvgF,DewpointLowF,HumidityHigh,HumidityAvg,HumidityLow,PressureMaxIn,PressureMinIn,WindSpeedMaxMPH,WindSpeedAvgMPH,GustSpeedMaxMPH,PrecipitationSumIn
2014-1-1,29,21,3,25,17,1,100,85,64,30.42,30.08,15,5,18,0.00
2014-1-2,22,7,-4,14,4,-5,97,87,69,30.46,30.31,15,6,15,0.00
2014-1-3,28,12,-4,18,7,-6,95,81,55,30.30,29.88,14,3,15,0.00
2014-1-4,28,17,-1,26,14,-4,100,87,69,29.97,29.72,24,6,28,0.00
2014-1-5,12,4,-5,9,0,-7,95,84,70,30.25,29.95,20,6,22,0.00
2014-1-6,14,-1,-15,5,-5,-17,95,82,62,30.43,30.24,14,4,14,0.00
2014-1-7,17,7,-8,15,5,-9,99,91,76,30.38,30.08,14,4,14,0.00
2014-1-8,29,21,14,24,20,13,100,95,81,30.14,30.05,8,1,10,0.00
2014-1-9,27,22,16,24,21,16,100,97,75,30.08,29.81,27,4,33,0.00
2014-1-10,24,20,11,22,18,7,100,93,76,30.17,29.82,19,1,30,0.00
2014-1-11,28,17,7,24,16,7,100,94,82,30.32,29.99,12,2,12,0.00
2014-1-12,28,20,14,27,18,12,100,94,78,30.14,29.75,30,7,47,0.00
2014-1-13,28,18,12,20,15,9,94,86,70,30.37,30.15,16,5,20,0.00
2014-1-14,28,19,8,23,16,7,98,87,71,30.51,30.30,22,7,25,0.00
2014-1-15,28,14,0,20,10,-1,98,85,63,30.49,30.33,12,2,12,0.00
2014-1-16,32,16,-1,17,9,-2,95,75,50,30.42,30.32,17,6,22,0.00
2014-1-17,27,11,-1,18,7,-3,95,85,66,30.41,30.29,12,4,12,0.00
2014-1-18,27,10,0,18,7,-2,95,86,68,30.44,30.31,15,6,15,0.00
2014-1-19,23,8,-4,16,5,-6,93,86,70,30.46,30.32,14,5,14,0.00
2014-1-20,26,10,-3,19,6,-4,97,86,72,30.56,30.30,13,5,14,0.00
2014-1-21,22,5,-7,13,0,-9,93,82,64,30.59,30.35,15,6,15,0.00
2014-1-22,20,3,-9,10,-2,-13,90,79,60,30.35,30.01,13,3,13,0.00
2014-1-23,26,10,0,17,5,-4,90,82,66,30.49,30.02,11,5,12,0.00
2014-1-24,21,4,-10,13,0,-12,91,82,67,30.58,30.48,13,4,13,0.00
2014-1-25,26,9,-2,18,5,-4,94,83,65,30.52,30.18,16,4,16,0.00
2014-1-26,31,13,0,22,9,-1,98,86,67,30.18,30.04,12,4,12,0.00
2014-1-27,33,18,3,26,15,2,98,86,60,30.05,29.85,30,7,32,0.00
2014-1-28,22,11,-1,17,0,-9,92,60,43,30.24,29.95,21,4,23,0.00
2014-1-29,29,14,-3,25,10,-7,100,83,57,30.24,29.84,11,2,12,0.00
2014-1-30,36,31,25,34,30,25,100,98,92,29.85,29.59,18,1,33,0.00
2014-1-31,37,27,15,31,26,14,100,96,63,29.70,29.56,16,4,36,0.00
2014-2-1,24,13,-3,20,11,-5,100,92,74,29.99,29.69,13,3,14,0.00
2014-2-2,10,-2,-16,6,-4,-18,95,91,84,30.09,29.93,12,5,13,0.00
2014-2-3,24,11,-1,18,9,-2,98,92,73,29.95,29.70,10,1,11,0.00
2014-2-4,21,12,3,18,10,1,98,94,86,29.92,29.68,12,2,13,0.00
2014-2-5,17,8,0,12,5,-1,97,89,78,30.01,29.91,12,2,12,0.00
2014-2-6,25,14,5,20,12,4,99,93,79,29.93,29.83,10,1,11,0.00
2014-2-7,30,21,14,24,19,14,100,93,66,29.98,29.79,21,5,26,0.00
2014-2-8,33,27,21,29,26,21,100,97,86,30.13,29.93,16,6,22,0.00
2014-2-9,35,31,28,34,31,28,100,98,92,30.11,29.99,16,2,17,0.00
2014-2-10,38,26,9,32,24,7,100,93,77,30.15,29.96,18,4,20,0.00
2014-2-11,19,7,-7,16,5,-9,97,91,79,30.22,30.09,14,3,14,0.00
2014-2-12,27,14,0,27,12,-1,100,92,77,30.27,30.13,11,3,11,0.00
2014-2-13,40,32,26,33,30,26,100,91,68,30.17,30.04,26,7,35,0.00
2014-2-14,40,34,30,33,30,27,96,86,69,30.22,30.06,18,5,26,0.00
2014-2-15,44,36,24,33,29,23,96,77,48,30.29,30.15,24,5,30,0.00
2014-2-16,41,30,19,34,24,12,98,80,43,30.22,29.98,42,8,46,0.00
2014-2-17,29,19,4,19,12,0,86,74,50,30.40,30.14,14,4,22,0.00
2014-2-18,36,21,6,22,14,3,92,77,52,30.20,30.10,11,3,11,0.00
2014-2-19,39,25,14,31,21,12,100,85,57,30.11,29.62,26,6,36,0.00
2014-2-20,21,12,-3,17,6,-5,95,79,56,30.16,29.74,23,9,24,0.00
2014-2-21,30,15,-3,19,10,-5,97,82,50,30.12,29.98,16,2,21,0.00
2014-2-22,34,22,2,23,13,1,94,71,48,30.01,29.90,27,6,27,0.00
2014-2-23,34,21,8,21,14,5,89,74,52,30.20,30.01,11,4,14,0.00
2014-2-24,42,22,5,24,14,3,93,76,44,30.22,30.13,12,4,19,0.00
2014-2-25,43,25,7,26,17,5,92,74,46,30.22,30.06,23,4,25,0.00
2014-2-26,40,30,19,27,23,16,94,78,48,30.11,30.05,16,4,16,0.00
2014-2-27,34,26,14,32,24,12,100,94,78,30.06,29.71,30,4,30,0.00
2014-2-28,38,30,26,29,27,23,100,90,58,29.99,29.78,17,5,18,0.00
2014-3-1,36,29,25,33,29,25,100,98,78,29.93,29.74,18,6,23,0.00
2014-3-2,37,28,21,31,26,19,100,91,65,30.20,29.90,14,2,18,0.00
2014-3-3,34,24,16,27,22,15,99,89,75,30.22,30.15,10,3,11,0.00
2014-3-4,36,24,8,31,22,7,100,91,72,30.17,29.98,13,3,15,0.00
2014-3-5,31,20,8,25,17,6,98,88,74,30.34,30.08,13,4,14,0.00
2014-3-6,34,22,7,28,17,5,100,84,63,30.33,30.05,14,4,14,0.00
2014-3-7,35,29,24,32,27,24,100,93,80,30.10,29.91,19,3,19,0.00
2014-3-8,32,22,10,25,18,9,98,87,71,30.51,30.10,14,4,15,0.00
2014-3-9,31,17,2,24,12,0,94,84,72,30.53,30.40,13,5,13,0.00
2014-3-10,36,22,6,24,15,3,90,75,59,30.40,29.92,12,3,12,0.00
2014-3-11,39,29,15,27,20,11,94,72,43,30.25,29.83,43,10,43,0.00
2014-3-12,30,15,0,19,10,-2,94,78,58,30.40,30.26,13,5,13,0.00
2014-3-13,33,19,1,25,12,-2,96,76,58,30.33,30.08,12,4,13,0.00
2014-3-14,35,23,9,27,19,7,98,85,61,30.19,30.09,14,4,16,0.00
2014-3-15,31,25,12,25,18,10,100,76,55,30.39,30.05,22,8,27,0.00
2014-3-16,38,24,8,26,16,6,92,73,57,30.43,30.25,18,4,19,0.00
2014-3-17,44,29,16,28,18,10,91,66,33,30.25,29.54,36,8,41,0.00
2014-3-18,31,22,14,20,15,9,88,73,49,30.06,29.65,20,8,23,0.00
2014-3-19,33,19,3,22,13,1,93,79,57,30.27,30.06,16,5,17,0.00
2014-3-20,39,22,4,23,14,1,91,71,43,30.28,30.09,12,4,15,0.00
2014-3-21,41,27,12,25,18,8,86,68,38,30.10,30.04,17,6,17,0.00
2014-3-22,40,28,17,35,25,13,100,89,74,30.27,30.00,17,4,23,0.00
2014-3-23,39,21,0,25,13,-1,95,74,37,30.33,30.17,22,6,24,0.00
2014-3-24,41,26,10,23,15,5,83,63,44,30.31,30.20,19,5,22,0.00
2014-3-25,43,27,11,26,18,7,90,70,45,30.32,29.99,15,4,17,0.00
2014-3-26,39,29,18,36,27,14,100,91,81,29.98,29.56,16,3,18,0.00
2014-3-27,38,30,25,31,27,24,100,90,61,29.95,29.58,23,4,26,0.00
2014-3-28,37,27,14,27,21,11,100,79,51,30.36,29.94,14,3,16,0.00
2014-3-29,39,22,2,28,17,1,96,81,57,30.39,30.18,14,5,15,0.00
2014-3-30,43,30,19,31,24,17,94,81,54,30.18,29.67,33,8,41,0.00
2014-3-31,39,30,23,26,21,15,97,71,45,30.07,29.87,21,6,28,0.00
2014-4-1,42,35,29,30,23,18,96,65,40,29.97,29.76,26,6,33,0.00
2014-4-2,35,30,25,32,25,19,98,83,64,29.80,29.73,19,3,26,0.00
2014-4-3,34,27,16,26,22,12,99,82,64,30.16,29.72,18,6,24,0.00
2014-4-4,37,22,4,27,16,2,94,78,52,30.17,30.03,16,5,17,0.00
2014-4-5,42,29,18,27,22,16,95,78,49,30.04,29.89,16,5,18,0.00
2014-4-6,39,28,15,27,22,13,98,78,57,30.10,29.99,23,6,25,0.00
2014-4-7,41,32,26,28,26,23,100,80,50,30.39,30.09,19,6,23,0.00
2014-4-8,48,33,18,32,26,16,96,76,48,30.48,30.37,10,3,11,0.00
2014-4-9,53,37,19,32,25,17,95,66,29,30.46,30.23,28,5,28,0.00
2014-4-10,53,39,26,30,25,19,89,62,28,30.27,30.19,26,5,28,0.00
2014-4-11,56,39,22,32,26,20,92,65,25,30.31,30.14,13,4,21,0.00
2014-4-12,53,37,25,37,29,21,100,75,40,30.14,29.89,29,5,29,0.00
2014-4-13,41,33,24,37,31,20,100,92,66,29.98,29.73,23,7,30,0.00
2014-4-14,35,26,17,21,16,11,89,69,47,30.30,29.98,18,8,22,0.00
2014-4-15,47,28,8,24,17,6,93,66,32,30.31,29.96,11,4,15,0.00
2014-4-16,45,36,26,25,21,15,84,56,38,30.12,29.89,22,7,26,0.00
2014-4-17,49,33,16,29,21,14,93,67,34,30.27,30.11,10,5,10,0.00
2014-4-18,56,38,22,31,27,20,95,67,32,30.31,30.17,23,6,23,0.00
2014-4-19,51,40,32,37,34,30,94,78,51,30.27,30.17,17,5,20,0.00